nopassiveincome.com alexa rank chart, nopassiveincome.com alexa rank daily changes

nopassiveincome.com alexa rank chart, nopassiveincome.com alexa rank daily changes

nopassiveincome.com
Actual rank:
294 464

RANK HISTORY

Date Rank Diff
2017/07/25 294 464 +514
2017/07/24 293 950 -1 068
2017/07/23 295 018 +11 010
2017/07/22 284 008 +4 215
2017/07/21 279 793 +4 546
2017/07/20 275 247 -1 393
2017/07/19 276 640 +5 718
2017/07/18 270 922 -9 836
2017/07/17 280 758 -14 998
2017/07/16 295 756 -7 706
2017/07/15 303 462 +2 942
2017/07/14 300 520 -16 752
2017/07/13 317 272 +6 850
2017/07/12 310 422 +3 201
2017/07/11 307 221 +1 352
2017/07/10 305 869 -7 620
2017/07/09 313 489 -16 476
2017/07/08 329 965 +391
2017/07/07 329 574 -10 147
2017/07/06 339 721 -2 414
2017/07/05 342 135 +12 099
2017/07/04 330 036 +12 602
2017/07/03 317 434 -5 874
2017/07/02 323 308 -5 509
2017/07/01 328 817 -18 945
2017/06/30 347 762 -10 855
2017/06/29 358 617 -5 045
2017/06/28 363 662 +10 233
2017/06/27 353 429 -1 641
2017/06/26 355 070 +12 017
2017/06/25 343 053 +3 760
2017/06/24 339 293 +15 135
2017/06/23 324 158 -11 580
2017/06/22 335 738 -2 424
2017/06/21 338 162 +3 530
2017/06/20 334 632 +12 544
2017/06/19 322 088 -9 850
2017/06/18 331 938 +3 933
2017/06/17 328 005 -8 872
2017/06/16 336 877 +5 427
2017/06/15 331 450 +7 423
2017/06/14 324 027 +47
2017/06/13 323 980 +6 132
2017/06/12 317 848 +7 151
2017/06/11 310 697 -3 981
2017/06/10 314 678 +10 341
2017/06/09 304 337 +5 633
2017/06/08 298 704 -5 448
2017/06/07 304 152 +7 181
2017/06/06 296 971 +9 370
2017/06/05 287 601 +1 721
2017/06/04 285 880 -5 239
2017/06/03 291 119 -113
2017/06/02 291 232 -11 733
2017/06/01 302 965 +8 225
2017/05/31 294 740 +7 763
2017/05/30 286 977 +6 297
2017/05/29 280 680 +3
2017/05/28 280 677 +318
2017/05/27 280 359 -2 195
2017/05/26 282 554

WIDGET FOR YOUR SITE

DOMAINS WITH THE NEAREST RANK

Domain Rank
pordata.pt 294 459
allindiabarexamination.com 294 460
softtorrent.net 294 461
sportega.de 294 462
urduchudai.com 294 463
nopassiveincome.com 294 464
kineticvas.com 294 465
legolanddiscoverycentre.de 294 466
transfertsfoot.com 294 467
gsmempire.com 294 468
webideh.com 294 469

DOMAINS WITH THE NEAREST RANK BY TLD .com

Domain Rank
packersnews.com 294 454
860916.com 294 455
worldcoo.com 294 457
allindiabarexamination.com 294 460
urduchudai.com 294 463
nopassiveincome.com 294 464
kineticvas.com 294 465
transfertsfoot.com 294 467
gsmempire.com 294 468
webideh.com 294 469
griddrawingtool.com 294 470